createdAt,value
2023-01-25T00:01:10.388Z,22.77
2023-01-25T00:03:38.343Z,24.25
2023-01-25T00:06:05.500Z,24.02
2023-01-25T00:08:33.896Z,23.40
2023-01-25T00:11:00.767Z,24.60
2023-01-25T00:13:27.660Z,24.42
2023-01-25T00:15:54.560Z,24.13
2023-01-25T00:18:21.559Z,23.02
2023-01-25T00:20:48.382Z,23.88
2023-01-25T00:23:15.241Z,24.67
2023-01-25T00:25:42.345Z,23.13
2023-01-25T00:28:09.269Z,24.98
2023-01-25T00:30:36.089Z,22.85
2023-01-25T00:33:26.897Z,24.15
2023-01-25T00:35:57.277Z,25.42
2023-01-25T00:38:34.878Z,25.70
2023-01-25T00:41:01.799Z,24.98
2023-01-25T00:43:28.641Z,26.45
2023-01-25T00:46:01.545Z,24.10
2023-01-25T00:48:29.916Z,24.63
2023-01-25T00:51:03.770Z,22.90
2023-01-25T00:53:30.623Z,24.00
2023-01-25T00:55:57.523Z,24.15
2023-01-25T00:58:24.790Z,23.55
2023-01-25T01:00:55.851Z,23.55
2023-01-25T01:03:24.011Z,25.05
2023-01-25T01:06:08.792Z,23.73
2023-01-25T01:08:39.433Z,24.85
2023-01-25T01:11:08.462Z,23.30
2023-01-25T01:13:36.127Z,22.60
2023-01-25T01:16:05.094Z,23.42
2023-01-25T01:18:36.978Z,23.98
2023-01-25T01:21:04.489Z,23.13
2023-01-25T01:23:32.222Z,22.50
2023-01-25T01:26:08.652Z,23.23
2023-01-25T01:28:39.550Z,23.67
2023-01-25T01:31:18.986Z,23.67
2023-01-25T01:33:56.032Z,23.40
2023-01-25T01:36:26.204Z,22.83
2023-01-25T01:38:53.959Z,24.10
2023-01-25T01:41:21.298Z,24.52
2023-01-25T01:43:48.698Z,23.38
2023-01-25T01:46:37.462Z,23.42
2023-01-25T01:49:17.103Z,22.27
2023-01-25T01:52:05.177Z,23.27
2023-01-25T01:54:49.989Z,22.35
2023-01-25T01:57:44.744Z,23.33
2023-01-25T02:00:26.538Z,22.33
2023-01-25T02:02:55.320Z,23.27
2023-01-25T02:05:33.481Z,23.05
2023-01-25T02:08:03.753Z,21.92
2023-01-25T02:10:32.245Z,24.17
2023-01-25T02:13:00.265Z,23.13
2023-01-25T02:15:36.809Z,21.67
2023-01-25T02:18:03.842Z,22.88
2023-01-25T02:20:38.037Z,21.95
2023-01-25T02:23:27.704Z,23.48
2023-01-25T02:25:57.813Z,22.80
2023-01-25T02:28:42.047Z,23.45
2023-01-25T02:31:09.147Z,23.15
2023-01-25T02:33:36.825Z,22.55
2023-01-25T02:36:07.391Z,22.08
2023-01-25T02:38:46.975Z,21.92
2023-01-25T02:41:28.022Z,21.42
2023-01-25T02:43:55.121Z,23.02
2023-01-25T02:46:27.469Z,21.15
2023-01-25T02:48:58.370Z,21.38
2023-01-25T02:51:31.133Z,20.63
2023-01-25T02:53:58.806Z,21.83
2023-01-25T02:56:26.629Z,23.08
2023-01-25T02:58:54.007Z,22.48
2023-01-25T03:01:21.268Z,22.73
2023-01-25T03:03:48.464Z,20.65
2023-01-25T03:06:16.349Z,22.50
2023-01-25T03:08:43.826Z,22.45
2023-01-25T03:11:10.863Z,22.63
2023-01-25T03:13:38.086Z,21.10
2023-01-25T03:16:11.153Z,21.67
2023-01-25T03:18:40.831Z,21.40
2023-01-25T03:21:14.042Z,22.23
2023-01-25T03:23:42.489Z,21.48
2023-01-25T03:26:16.371Z,21.40
2023-01-25T03:28:59.070Z,21.70
2023-01-25T03:31:26.042Z,22.58
2023-01-25T03:33:53.059Z,21.65
2023-01-25T03:36:24.660Z,21.67
2023-01-25T03:38:51.659Z,22.52
2023-01-25T03:41:18.793Z,22.35
2023-01-25T03:43:46.638Z,22.30
2023-01-25T03:46:16.926Z,21.85
2023-01-25T03:48:43.980Z,21.08
2023-01-25T03:51:11.460Z,21.33
2023-01-25T03:53:38.350Z,19.83
2023-01-25T03:56:11.880Z,18.90
2023-01-25T03:58:43.067Z,20.70
2023-01-25T04:01:10.070Z,20.02
2023-01-25T04:03:37.360Z,20.58
2023-01-25T04:06:05.995Z,19.08
2023-01-25T04:08:34.483Z,20.45
2023-01-25T04:11:07.870Z,19.85
2023-01-25T04:13:37.935Z,20.02
2023-01-25T04:16:09.751Z,21.17
2023-01-25T04:18:56.477Z,19.67
2023-01-25T04:21:23.637Z,20.80
2023-01-25T04:23:50.654Z,20.30
2023-01-25T04:26:17.688Z,20.73
2023-01-25T04:28:52.048Z,19.13
2023-01-25T04:31:19.000Z,20.17
2023-01-25T04:33:46.276Z,19.58
2023-01-25T04:36:16.421Z,18.73
2023-01-25T04:38:43.418Z,19.20
2023-01-25T04:41:10.980Z,19.85
2023-01-25T04:43:37.968Z,16.85
2023-01-25T04:46:09.840Z,16.95
2023-01-25T04:48:36.825Z,17.77
2023-01-25T04:51:06.281Z,17.60
2023-01-25T04:53:34.261Z,18.55
2023-01-25T04:56:06.318Z,19.50
2023-01-25T04:58:41.508Z,18.58
2023-01-25T05:01:08.470Z,18.13
2023-01-25T05:03:35.626Z,20.13
2023-01-25T05:06:03.918Z,18.60
2023-01-25T05:08:30.787Z,18.17
2023-01-25T05:11:01.309Z,19.75
2023-01-25T05:13:36.540Z,18.30
2023-01-25T05:16:13.038Z,19.48
2023-01-25T05:18:48.468Z,19.90
2023-01-25T05:21:38.596Z,17.77
2023-01-25T05:24:06.253Z,18.10
2023-01-25T05:26:52.542Z,18.90
2023-01-25T05:29:19.606Z,19.05
2023-01-25T05:31:53.111Z,17.02
2023-01-25T05:34:20.061Z,17.77
2023-01-25T05:36:47.267Z,17.50
2023-01-25T05:39:14.396Z,18.60
2023-01-25T05:41:41.220Z,19.20
2023-01-25T05:44:08.756Z,17.85
2023-01-25T05:46:39.921Z,16.80
2023-01-25T05:49:07.226Z,17.45
2023-01-25T05:51:35.782Z,18.38
2023-01-25T05:54:03.392Z,17.40
2023-01-25T05:56:30.264Z,16.83
2023-01-25T05:58:58.915Z,17.20
2023-01-25T06:01:26.390Z,17.00
2023-01-25T06:03:57.350Z,14.05
2023-01-25T06:06:25.829Z,15.60
2023-01-25T06:08:53.072Z,16.50
2023-01-25T06:11:23.696Z,14.43
2023-01-25T06:13:52.945Z,14.80
2023-01-25T06:16:21.446Z,15.15
2023-01-25T06:19:13.549Z,14.35
2023-01-25T06:21:56.674Z,15.25
2023-01-25T06:24:23.550Z,15.20
2023-01-25T06:26:50.383Z,15.02
2023-01-25T06:29:17.164Z,14.93
2023-01-25T06:31:44.194Z,15.57
2023-01-25T06:34:11.063Z,16.02
2023-01-25T06:36:38.027Z,15.27
2023-01-25T06:39:05.204Z,15.30
2023-01-25T06:41:32.101Z,16.13
2023-01-25T06:43:58.986Z,17.25
2023-01-25T06:46:25.873Z,16.52
2023-01-25T06:48:52.785Z,16.58
2023-01-25T06:51:19.717Z,16.17
2023-01-25T06:53:47.907Z,17.10
2023-01-25T06:56:21.504Z,15.65
2023-01-25T06:58:49.638Z,15.88
2023-01-25T07:01:27.295Z,15.85
2023-01-25T07:03:56.225Z,16.23
2023-01-25T07:06:24.124Z,17.10
2023-01-25T07:08:51.572Z,16.42
2023-01-25T07:11:19.187Z,17.27
2023-01-25T07:13:47.493Z,16.80
2023-01-25T07:16:23.345Z,16.67
2023-01-25T07:18:50.153Z,15.45
2023-01-25T07:21:22.232Z,16.10
2023-01-25T07:23:50.439Z,17.67
2023-01-25T07:26:23.135Z,17.42
2023-01-25T07:28:51.069Z,17.08
2023-01-25T07:31:19.379Z,16.20
2023-01-25T07:33:56.810Z,17.25
2023-01-25T07:36:24.172Z,17.00
2023-01-25T07:38:55.409Z,16.33
2023-01-25T07:41:23.271Z,16.38
2023-01-25T07:43:51.843Z,17.23
2023-01-25T07:46:29.706Z,16.17
2023-01-25T07:48:58.859Z,15.90
2023-01-25T07:51:30.187Z,16.63
2023-01-25T07:54:02.171Z,15.88
2023-01-25T07:56:34.615Z,16.13
2023-01-25T07:59:08.288Z,15.70
2023-01-25T08:01:36.654Z,16.55
2023-01-25T08:04:04.804Z,15.95
2023-01-25T08:06:35.965Z,16.15
2023-01-25T08:09:07.091Z,16.00
2023-01-25T08:11:34.786Z,16.15
2023-01-25T08:14:03.142Z,16.80
2023-01-25T08:16:32.032Z,16.73
2023-01-25T08:19:00.615Z,16.35
2023-01-25T08:21:30.097Z,17.15
2023-01-25T08:24:02.102Z,16.95
2023-01-25T08:26:29.305Z,16.33
2023-01-25T08:28:57.915Z,16.58
2023-01-25T08:31:27.921Z,16.83
2023-01-25T08:33:55.837Z,18.65
2023-01-25T08:36:24.268Z,17.73
2023-01-25T08:38:55.949Z,16.58
2023-01-25T08:41:23.769Z,17.00
2023-01-25T08:43:53.188Z,17.75
2023-01-25T08:46:21.225Z,17.33
2023-01-25T08:48:48.236Z,15.85
2023-01-25T08:51:16.964Z,16.95
2023-01-25T08:53:43.851Z,16.25
2023-01-25T08:56:13.093Z,16.98
2023-01-25T08:58:43.660Z,18.17
2023-01-25T09:01:12.596Z,17.35
2023-01-25T09:03:44.574Z,18.10
2023-01-25T09:06:12.081Z,12.82
2023-01-25T09:08:39.537Z,15.70
2023-01-25T09:11:09.112Z,16.02
2023-01-25T09:13:36.694Z,15.85
2023-01-25T09:16:09.942Z,15.88
2023-01-25T09:18:38.451Z,15.10
2023-01-25T09:21:14.798Z,16.52
2023-01-25T09:23:51.310Z,18.25
2023-01-25T09:26:32.449Z,16.67
2023-01-25T09:28:59.689Z,17.20
2023-01-25T09:31:29.243Z,14.95
2023-01-25T09:34:10.084Z,16.38
2023-01-25T09:36:38.024Z,17.05
2023-01-25T09:39:04.963Z,17.48
2023-01-25T09:42:14.089Z,16.45
2023-01-25T09:44:47.120Z,17.75
2023-01-25T09:47:35.093Z,17.40
2023-01-25T09:50:18.815Z,18.10
2023-01-25T09:53:13.281Z,17.30
2023-01-25T09:55:41.533Z,17.25
2023-01-25T09:58:18.236Z,17.67
2023-01-25T10:00:48.194Z,18.05
2023-01-25T10:03:44.375Z,17.65
2023-01-25T10:06:13.885Z,17.13
2023-01-25T10:09:01.063Z,17.75
2023-01-25T10:11:32.606Z,16.95
2023-01-25T10:14:00.194Z,16.23
2023-01-25T10:16:33.369Z,16.05
2023-01-25T10:19:18.229Z,15.68
2023-01-25T10:22:13.068Z,16.52
2023-01-25T10:24:58.996Z,18.00
2023-01-25T10:27:40.496Z,17.17
2023-01-25T10:30:28.092Z,17.48
2023-01-25T10:33:01.144Z,16.75
2023-01-25T10:35:36.122Z,16.23
2023-01-25T10:38:11.843Z,17.80
2023-01-25T10:40:48.598Z,15.35
2023-01-25T10:43:21.202Z,15.20
2023-01-25T10:45:50.198Z,15.25
2023-01-25T10:48:23.198Z,15.50
2023-01-25T10:50:52.935Z,16.17
2023-01-25T10:53:40.043Z,15.00
2023-01-25T10:56:24.025Z,15.73
2023-01-25T10:58:54.470Z,14.88
2023-01-25T11:01:28.680Z,16.92
2023-01-25T11:03:56.235Z,16.23
2023-01-25T11:06:38.542Z,15.93
2023-01-25T11:09:29.309Z,15.05
2023-01-25T11:12:02.145Z,15.43
2023-01-25T11:14:33.618Z,16.35
2023-01-25T11:17:03.353Z,14.50
2023-01-25T11:19:37.810Z,15.75
2023-01-25T11:22:20.883Z,14.27
2023-01-25T11:27:26.188Z,14.32
2023-01-25T11:30:10.585Z,14.98
2023-01-25T11:32:42.210Z,14.35
2023-01-25T11:35:26.815Z,14.10
2023-01-25T11:38:08.412Z,14.05
2023-01-25T11:40:49.048Z,14.82
2023-01-25T11:43:21.729Z,14.90
2023-01-25T11:46:02.743Z,14.63
2023-01-25T11:48:58.219Z,15.10
2023-01-25T11:51:46.574Z,15.07
2023-01-25T11:54:53.789Z,14.18
2023-01-25T11:57:43.398Z,14.75
2023-01-25T12:00:36.367Z,15.30
2023-01-25T12:03:24.071Z,14.93
2023-01-25T12:06:14.883Z,16.25
2023-01-25T12:09:02.543Z,14.50
2023-01-25T12:12:12.731Z,15.20
2023-01-25T12:15:02.867Z,16.50
2023-01-25T12:18:14.336Z,15.93
2023-01-25T12:20:59.663Z,15.90
2023-01-25T12:23:47.199Z,16.42
2023-01-25T12:26:30.536Z,15.20
2023-01-25T12:29:02.385Z,14.70
2023-01-25T12:31:54.735Z,16.45
2023-01-25T12:34:31.163Z,15.33
2023-01-25T12:37:06.866Z,16.73
2023-01-25T12:39:40.936Z,16.20
2023-01-25T12:42:25.140Z,15.75
2023-01-25T12:45:11.605Z,15.75
2023-01-25T12:47:45.971Z,16.50
2023-01-25T12:50:20.588Z,16.83
2023-01-25T12:52:52.245Z,16.08
2023-01-25T12:55:19.547Z,15.90
2023-01-25T12:57:49.220Z,16.08
2023-01-25T13:00:37.902Z,15.02
2023-01-25T13:03:36.599Z,14.85
2023-01-25T13:06:19.382Z,15.20
2023-01-25T13:09:03.252Z,15.70
2023-01-25T13:11:41.663Z,16.42
2023-01-25T13:14:18.016Z,14.70
2023-01-25T13:17:09.248Z,15.68
2023-01-25T13:19:36.880Z,14.98
2023-01-25T13:22:04.507Z,14.32
2023-01-25T13:24:55.548Z,16.05
2023-01-25T13:27:27.698Z,15.10
2023-01-25T13:30:29.790Z,15.43
2023-01-25T13:33:00.054Z,15.10
2023-01-25T13:35:32.915Z,15.63
2023-01-25T13:38:25.118Z,15.55
2023-01-25T13:41:04.399Z,14.93
2023-01-25T13:43:31.228Z,15.73
2023-01-25T13:45:58.350Z,16.25
2023-01-25T13:48:28.703Z,16.33
2023-01-25T13:51:00.310Z,16.95
2023-01-25T13:53:33.392Z,15.57
2023-01-25T13:56:01.367Z,17.05
2023-01-25T13:58:32.785Z,16.98
2023-01-25T14:01:13.404Z,16.75
2023-01-25T14:03:46.789Z,17.70
2023-01-25T14:06:38.969Z,18.50
2023-01-25T14:09:16.600Z,17.05
2023-01-25T14:11:56.254Z,17.95
2023-01-25T14:14:27.979Z,18.52
2023-01-25T14:17:24.589Z,17.17
2023-01-25T14:19:55.031Z,18.20
2023-01-25T14:22:27.054Z,16.13
2023-01-25T14:25:22.527Z,17.92
2023-01-25T14:27:59.188Z,17.10
2023-01-25T14:30:31.528Z,17.48
2023-01-25T14:33:01.557Z,16.02
2023-01-25T14:38:38.923Z,16.83
2023-01-25T14:41:18.690Z,17.13
2023-01-25T14:43:50.605Z,16.98
2023-01-25T14:46:32.776Z,18.53
2023-01-25T14:49:16.257Z,20.40
2023-01-25T14:51:50.564Z,18.92
2023-01-25T14:54:24.309Z,19.38
2023-01-25T14:56:54.832Z,18.83
2023-01-25T14:59:38.304Z,18.80
2023-01-25T15:02:17.093Z,18.42
2023-01-25T15:04:58.023Z,19.40
2023-01-25T15:07:53.841Z,19.00
2023-01-25T15:10:20.720Z,19.42
2023-01-25T15:13:14.624Z,19.67
2023-01-25T15:16:00.829Z,20.35
2023-01-25T15:18:53.593Z,20.05
2023-01-25T15:21:33.809Z,19.33
2023-01-25T15:24:06.861Z,18.50
2023-01-25T15:26:35.748Z,20.33
2023-01-25T15:29:14.951Z,19.95
2023-01-25T15:31:42.514Z,21.23
2023-01-25T15:34:19.953Z,19.92
2023-01-25T15:36:47.323Z,19.88
2023-01-25T15:39:16.791Z,19.10
2023-01-25T15:41:44.312Z,18.58
2023-01-25T15:44:11.592Z,19.30
2023-01-25T15:46:41.957Z,19.02
2023-01-25T15:49:21.099Z,19.60
2023-01-25T15:51:47.970Z,19.38
2023-01-25T15:54:14.918Z,19.42
2023-01-25T15:56:43.610Z,19.08
2023-01-25T15:59:16.549Z,20.27
2023-01-25T16:01:43.681Z,20.95
2023-01-25T16:04:13.579Z,20.63
2023-01-25T16:06:50.163Z,20.80
2023-01-25T16:09:21.805Z,20.50
2023-01-25T16:11:51.849Z,21.13
2023-01-25T16:14:19.281Z,20.38
2023-01-25T16:16:49.414Z,19.08
2023-01-25T16:19:18.821Z,21.20
2023-01-25T16:21:45.865Z,20.88
2023-01-25T16:24:13.278Z,18.48
2023-01-25T16:26:49.599Z,21.17
2023-01-25T16:29:16.666Z,21.08
2023-01-25T16:31:43.747Z,20.98
2023-01-25T16:34:10.743Z,22.70
2023-01-25T16:36:39.455Z,20.65
2023-01-25T16:39:22.587Z,22.63
2023-01-25T16:41:49.733Z,21.10
2023-01-25T16:44:17.176Z,20.65
2023-01-25T16:46:44.112Z,19.80
2023-01-25T16:49:16.747Z,20.65
2023-01-25T16:51:45.425Z,19.52
2023-01-25T16:54:14.588Z,20.23
2023-01-25T16:56:44.173Z,19.85
2023-01-25T16:59:11.864Z,20.38
2023-01-25T17:01:41.317Z,18.85
2023-01-25T17:04:09.040Z,19.13
2023-01-25T17:06:38.408Z,19.67
2023-01-25T17:09:21.597Z,18.27
2023-01-25T17:11:49.927Z,18.15
2023-01-25T17:14:19.107Z,19.17
2023-01-25T17:16:48.311Z,18.67
2023-01-25T17:19:17.021Z,18.67
2023-01-25T17:21:44.309Z,18.88
2023-01-25T17:24:14.271Z,19.15
2023-01-25T17:26:41.783Z,18.20
2023-01-25T17:29:12.655Z,16.98
2023-01-25T17:31:41.244Z,17.95
2023-01-25T17:34:11.006Z,18.30
2023-01-25T17:36:37.882Z,19.42
2023-01-25T17:39:06.300Z,18.08
2023-01-25T17:41:34.678Z,18.98
2023-01-25T17:44:04.302Z,18.00
2023-01-25T17:46:37.351Z,16.05
2023-01-25T17:49:06.681Z,18.58
2023-01-25T17:51:35.437Z,17.55
2023-01-25T17:54:04.032Z,18.88
2023-01-25T17:56:30.931Z,17.27
2023-01-25T17:59:01.011Z,18.13
2023-01-25T18:01:30.920Z,20.98
2023-01-25T18:03:58.467Z,18.70
2023-01-25T18:06:28.984Z,18.75
2023-01-25T18:09:00.117Z,20.75
2023-01-25T18:11:31.009Z,29.70
2023-01-25T18:14:01.148Z,30.58
2023-01-25T18:16:30.908Z,20.75
2023-01-25T18:18:59.846Z,20.38
2023-01-25T18:21:31.983Z,19.75
2023-01-25T18:24:24.909Z,19.63
2023-01-25T18:26:54.273Z,18.83
2023-01-25T18:29:46.737Z,18.83
2023-01-25T18:32:17.733Z,17.80
2023-01-25T18:34:46.974Z,17.65
2023-01-25T18:37:20.727Z,19.13
2023-01-25T18:39:50.531Z,18.40
2023-01-25T18:42:19.816Z,17.77
2023-01-25T18:44:48.528Z,18.80
2023-01-25T18:47:19.746Z,17.55
2023-01-25T18:49:53.284Z,17.83
2023-01-25T18:52:26.450Z,16.67
2023-01-25T18:54:53.804Z,16.60
2023-01-25T18:57:20.985Z,17.00
2023-01-25T18:59:47.948Z,16.63
2023-01-25T19:02:16.376Z,17.23
2023-01-25T19:04:43.281Z,18.17
2023-01-25T19:07:10.260Z,16.95
2023-01-25T19:09:37.691Z,17.10
2023-01-25T19:12:04.986Z,15.93
2023-01-25T19:14:33.593Z,16.35
2023-01-25T19:17:00.591Z,15.45
2023-01-25T19:19:32.278Z,17.30
2023-01-25T19:22:01.723Z,17.63
2023-01-25T19:24:28.777Z,18.40
2023-01-25T19:26:55.673Z,23.92
2023-01-25T19:29:22.829Z,17.40
2023-01-25T19:31:50.105Z,17.65
2023-01-25T19:34:17.082Z,16.67
2023-01-25T19:36:50.155Z,17.55
2023-01-25T19:39:17.702Z,16.63
2023-01-25T19:41:45.030Z,18.23
2023-01-25T19:44:13.877Z,17.80
2023-01-25T19:46:40.981Z,17.42
2023-01-25T19:49:10.052Z,16.73
2023-01-25T19:51:39.913Z,15.93
2023-01-25T19:54:10.756Z,16.08
2023-01-25T19:56:40.346Z,17.65
2023-01-25T19:59:28.951Z,17.23
2023-01-25T20:01:56.330Z,17.52
2023-01-25T20:04:24.115Z,16.90
2023-01-25T20:06:57.622Z,16.73
2023-01-25T20:09:27.870Z,17.25
2023-01-25T20:11:57.950Z,15.98
2023-01-25T20:14:25.128Z,16.33
2023-01-25T20:16:52.844Z,17.92
2023-01-25T20:19:27.254Z,16.00
2023-01-25T20:21:54.337Z,15.48
2023-01-25T20:24:23.880Z,17.15
2023-01-25T20:26:51.317Z,15.63
2023-01-25T20:29:24.334Z,15.57
2023-01-25T20:31:55.308Z,15.48
2023-01-25T20:34:25.138Z,14.75
2023-01-25T20:36:52.167Z,15.25
2023-01-25T20:39:21.693Z,15.43
2023-01-25T20:41:51.859Z,14.88
2023-01-25T20:44:18.827Z,16.70
2023-01-25T20:46:50.128Z,16.05
2023-01-25T20:49:18.717Z,15.73
2023-01-25T20:51:46.940Z,16.30
2023-01-25T20:54:15.156Z,16.67
2023-01-25T20:56:43.074Z,16.20
2023-01-25T20:59:10.276Z,16.83
2023-01-25T21:01:37.602Z,18.10
2023-01-25T21:04:06.725Z,18.83
2023-01-25T21:06:35.331Z,19.20
2023-01-25T21:09:05.234Z,19.52
2023-01-25T21:11:32.971Z,19.10
2023-01-25T21:13:59.949Z,19.75
2023-01-25T21:16:27.297Z,18.67
2023-01-25T21:18:57.544Z,16.52
2023-01-25T21:21:27.960Z,17.67
2023-01-25T21:23:57.816Z,16.83
2023-01-25T21:26:27.261Z,18.73
2023-01-25T21:28:55.565Z,17.00
2023-01-25T21:31:28.201Z,19.02
2023-01-25T21:33:55.816Z,18.65
2023-01-25T21:36:23.037Z,19.30
2023-01-25T21:38:53.946Z,19.95
2023-01-25T21:41:26.472Z,19.70
2023-01-25T21:44:13.489Z,20.00
2023-01-25T21:46:40.638Z,19.23
2023-01-25T21:49:27.732Z,19.05
2023-01-25T21:51:56.717Z,19.40
2023-01-25T21:54:25.987Z,19.25
2023-01-25T21:56:55.671Z,19.17
2023-01-25T21:59:25.851Z,20.05
2023-01-25T22:01:53.876Z,20.33
2023-01-25T22:04:24.464Z,20.40
2023-01-25T22:06:54.806Z,19.63
2023-01-25T22:09:24.952Z,19.92
2023-01-25T22:11:53.437Z,20.38
2023-01-25T22:14:23.253Z,20.35
2023-01-25T22:16:51.581Z,20.63
2023-01-25T22:19:18.926Z,21.27
2023-01-25T22:21:46.099Z,19.70
2023-01-25T22:24:13.150Z,18.85
2023-01-25T22:26:45.776Z,19.88
2023-01-25T22:29:13.326Z,19.73
2023-01-25T22:31:40.245Z,18.55
2023-01-25T22:34:07.087Z,19.10
2023-01-25T22:36:34.050Z,19.67
2023-01-25T22:39:00.879Z,20.17
2023-01-25T22:41:30.303Z,18.52
2023-01-25T22:44:00.173Z,17.98
2023-01-25T22:46:29.091Z,17.95
2023-01-25T22:48:58.634Z,17.40
2023-01-25T22:51:28.153Z,19.88
2023-01-25T22:53:55.959Z,18.77
2023-01-25T22:56:31.822Z,19.00
2023-01-25T22:58:59.625Z,20.85
2023-01-25T23:01:29.663Z,21.00
2023-01-25T23:03:57.203Z,19.10
2023-01-25T23:06:33.162Z,21.30
2023-01-25T23:09:03.441Z,21.00
2023-01-25T23:11:35.378Z,19.52
2023-01-25T23:14:22.271Z,19.15
2023-01-25T23:16:49.103Z,19.58
2023-01-25T23:19:16.211Z,19.33
2023-01-25T23:21:43.159Z,22.42
2023-01-25T23:24:10.644Z,22.00
2023-01-25T23:26:38.310Z,21.58
2023-01-25T23:29:08.262Z,22.40
2023-01-25T23:31:36.018Z,22.65
2023-01-25T23:34:05.420Z,21.65
2023-01-25T23:36:34.280Z,21.17
2023-01-25T23:39:01.738Z,20.83
2023-01-25T23:41:29.964Z,19.98
2023-01-25T23:43:58.022Z,21.45
2023-01-25T23:46:25.250Z,19.30
2023-01-25T23:48:52.147Z,20.67
2023-01-25T23:51:20.245Z,19.67
2023-01-25T23:53:47.504Z,20.27
2023-01-25T23:56:20.973Z,22.48
2023-01-25T23:58:49.013Z,20.88
